Terminal Aerodrome Forecast
Issued by NWS

Home | Current Version | Previous Version | Text Only | Print | Product List | Glossary On
Versions: 1 2 3 4 5 6 7 8 9 10 11 12 13 14 15 16 17 18 19
000
FTUS43 KAPX 271741
TAFPLN
TAF
KPLN 271741Z 2718/2818 00000KT P6SM OVC025
      TEMPO 2719/2720 SCT025
     FM272000 24006KT P6SM SCT028
     FM280100 00000KT P6SM SKC
     FM281000 21005KT P6SM BKN030=

USA.gov is the U.S. government's official web portal to all federal, state and local government web resources and services.